Terminal Aerodrome Forecast
Issued by NWS Wilmington, OH

Current Version | Previous Version | Text Only | Print | Product List | Glossary On
Versions: 1 2 3 4 5 6 7 8 9 10 11 12 13 14 15 16 17 18 19 20 21 22 23 24 25
000 FTUS41 KILN 252300 TAFCVG TAF KCVG 252328Z 2600/2706 06012G20KT P6SM VCSH OVC008 TEMPO 2600/2604 4SM -SHRA BR OVC005 FM260800 03012G20KT P6SM SCT008 BKN025 FM261300 01012KT P6SM BKN040 FM262300 01008KT P6SM SCT040=

USA.gov is the U.S. government's official web portal to all federal, state and local government web resources and services.